Time;durP1;ratioP1;P1;durP2;ratioP2;P2;SDS_P1;SDS_P2;PMS_P1;PMS_P2;Temp;Humidity;BMP_temperature;BMP_pressure;BME280_temperature;BME280_humidity;BME280_pressure;Samples;Min_cycle;Max_cycle;Signal;HPM_P1;HPM_P2
2024/04/18 00:02:52;;;;;;;4.55;1.90;;;;;;;20.78;47.87;100489.54;2336331;75;50630;-77
2024/04/18 00:05:54;;;;;;;7.37;1.37;;;;;;;20.78;47.88;100489.54;2302149;75;49619;-77
2024/04/18 00:08:56;;;;;;;7.45;1.90;;;;;;;20.78;47.88;100494.42;2340381;75;50301;-77
2024/04/18 00:11:59;;;;;;;6.58;2.08;;;;;;;20.78;47.89;100496.26;2336220;75;50726;-77
2024/04/18 00:15:01;;;;;;;6.10;1.90;;;;;;;20.78;47.87;100494.91;2312039;75;51606;-77
2024/04/18 00:18:03;;;;;;;4.95;1.50;;;;;;;20.78;47.87;100497.61;2330522;75;51498;-76
2024/04/18 00:21:05;;;;;;;4.20;1.62;;;;;;;20.76;47.87;100497.00;2278037;75;49599;-77
2024/04/18 00:24:08;;;;;;;5.45;1.95;;;;;;;20.76;47.87;100497.00;2311182;75;50325;-76
2024/04/18 00:27:10;;;;;;;3.17;1.60;;;;;;;20.77;47.84;100506.19;2318924;75;51543;-77
2024/04/18 00:30:12;;;;;;;4.92;1.47;;;;;;;20.76;47.88;100497.00;2290013;75;49530;-76
2024/04/18 00:33:14;;;;;;;4.70;1.67;;;;;;;20.77;47.84;100508.06;2316198;75;50353;-76
2024/04/18 00:36:16;;;;;;;2.37;1.50;;;;;;;20.75;47.84;100502.87;2316720;75;50714;-77
2024/04/18 00:39:19;;;;;;;4.17;1.70;;;;;;;20.75;47.87;100500.18;2336304;75;51467;-77
2024/04/18 00:42:21;;;;;;;3.25;1.30;;;;;;;20.75;47.83;100506.08;2319099;75;50717;-76
2024/04/18 00:45:23;;;;;;;4.53;1.60;;;;;;;20.74;47.88;100503.91;2269157;75;50990;-76
2024/04/18 00:48:26;;;;;;;3.80;1.50;;;;;;;20.74;47.87;100505.78;2335157;75;51411;-77
2024/04/18 00:51:28;;;;;;;5.03;1.55;;;;;;;20.75;47.84;100510.11;2307322;75;51509;-77
2024/04/18 00:54:30;;;;;;;3.40;1.50;;;;;;;20.73;47.79;100521.09;2293438;75;51244;-76
2024/04/18 00:57:33;;;;;;;4.65;1.67;;;;;;;20.73;47.82;100517.54;2340882;75;52410;-77
2024/04/18 01:00:35;;;;;;;4.05;1.57;;;;;;;20.73;47.83;100514.85;2340517;75;50343;-76
2024/04/18 01:03:37;;;;;;;5.65;1.70;;;;;;;20.72;47.79;100528.81;2340275;75;50719;-76
2024/04/18 01:06:40;;;;;;;5.97;1.72;;;;;;;20.72;47.75;100515.89;2320344;75;50764;-77
2024/04/18 01:09:42;;;;;;;4.25;1.40;;;;;;;20.73;47.80;100523.77;2305133;75;51065;-76
2024/04/18 01:12:46;;;;;;;8.15;1.75;;;;;;;20.72;47.85;100523.44;2349197;75;50292;-76
2024/04/18 01:15:48;;;;;;;5.47;1.70;;;;;;;20.72;47.86;100522.62;2340504;75;50342;-75
2024/04/18 01:18:51;;;;;;;2.85;1.40;;;;;;;20.72;47.81;100528.81;2289363;75;51735;-76
2024/04/18 01:21:53;;;;;;;5.70;1.40;;;;;;;20.72;47.82;100522.09;2344840;75;52332;-77
2024/04/18 01:24:55;;;;;;;2.77;1.37;;;;;;;20.72;47.78;100528.00;2342608;75;50701;-76
2024/04/18 01:27:57;;;;;;;5.50;1.60;;;;;;;20.71;47.78;100525.83;2311882;75;51529;-76
2024/04/18 01:30:59;;;;;;;5.35;1.62;;;;;;;20.71;47.80;100525.83;2323587;75;51654;-80
2024/04/18 01:34:02;;;;;;;3.37;1.80;;;;;;;20.71;47.77;100531.73;2296714;75;52553;-76
2024/04/18 01:37:04;;;;;;;5.12;1.85;;;;;;;20.71;47.79;100536.58;2313192;75;50090;-77
2024/04/18 01:40:07;;;;;;;3.60;1.35;;;;;;;20.70;47.80;100532.22;2310372;75;51459;-77
2024/04/18 01:43:09;;;;;;;3.17;1.50;;;;;;;20.71;47.79;100531.20;2323526;75;49643;-78
2024/04/18 01:46:11;;;;;;;7.95;1.10;;;;;;;20.70;47.73;100532.22;2339716;74;50712;-77
2024/04/18 01:49:13;;;;;;;3.02;1.30;;;;;;;20.70;47.80;100532.73;2330934;75;50092;-77
2024/04/18 01:52:15;;;;;;;6.92;1.50;;;;;;;20.70;47.78;100539.45;2316793;75;50695;-77
2024/04/18 01:55:18;;;;;;;6.62;1.67;;;;;;;20.69;47.75;100538.63;2332317;73;51525;-76
2024/04/18 01:58:20;;;;;;;6.40;1.60;;;;;;;20.69;47.73;100545.87;2298361;75;51785;-77
2024/04/18 02:01:26;;;;;;;6.55;1.55;;;;;;;20.69;47.70;100544.02;2334448;75;51493;-76
2024/04/18 02:04:29;;;;;;;4.45;1.37;;;;;;;20.68;47.73;100549.09;2332085;75;51559;-77
2024/04/18 02:07:31;;;;;;;3.33;1.37;;;;;;;20.69;47.64;100549.91;2280179;75;52516;-77
2024/04/18 02:10:35;;;;;;;4.97;1.67;;;;;;;20.68;47.70;100557.16;2331003;75;50525;-77
2024/04/18 02:13:37;;;;;;;4.55;1.10;;;;;;;20.68;47.78;100550.43;2327454;75;50741;-77
2024/04/18 02:16:39;;;;;;;3.50;1.25;;;;;;;20.68;47.75;100554.95;2328589;75;50048;-78
2024/04/18 02:19:41;;;;;;;8.63;1.60;;;;;;;20.68;47.74;100556.30;2328102;75;50734;-77
2024/04/18 02:22:44;;;;;;;3.30;1.40;;;;;;;20.67;47.62;100559.51;2296056;75;51526;-78
2024/04/18 02:25:46;;;;;;;3.42;1.40;;;;;;;20.66;47.41;100553.30;2329591;75;52563;-77
2024/04/18 02:28:48;;;;;;;2.80;1.17;;;;;;;20.67;47.71;100566.23;2302209;75;51464;-78
2024/04/18 02:31:50;;;;;;;4.42;1.30;;;;;;;20.68;47.67;100563.02;2304673;75;51821;-78
2024/04/18 02:34:52;;;;;;;7.22;1.60;;;;;;;20.65;47.66;100563.76;2316056;75;50411;-78
2024/04/18 02:37:55;;;;;;;3.25;1.32;;;;;;;20.66;47.68;100570.78;2309570;75;50214;-78
2024/04/18 02:41:06;;;;;;;4.65;1.30;;;;;;;20.65;47.62;100571.82;2324636;75;50712;-78
2024/04/18 02:44:08;;;;;;;7.60;1.57;;;;;;;20.66;47.59;100583.40;2321611;75;51586;-77
2024/04/18 02:47:11;;;;;;;7.20;1.42;;;;;;;20.64;47.56;100578.21;2299348;75;50104;-77
2024/04/18 02:50:13;;;;;;;6.97;1.67;;;;;;;20.64;47.66;100579.55;2297994;75;50435;-78
2024/04/18 02:53:15;;;;;;;3.87;1.47;;;;;;;20.65;47.66;100585.27;2325046;75;50775;-79
2024/04/18 02:56:17;;;;;;;5.58;1.75;;;;;;;20.64;47.66;100588.97;2272821;75;52481;-77
2024/04/18 02:59:19;;;;;;;2.27;1.40;;;;;;;20.64;47.60;100587.62;2300079;75;50764;-77
2024/04/18 03:02:24;;;;;;;3.00;1.32;;;;;;;20.64;47.64;100584.94;2335160;75;51580;-77
2024/04/18 03:05:26;;;;;;;3.13;1.00;;;;;;;20.64;47.58;100590.30;2303476;75;50219;-78
2024/04/18 03:08:28;;;;;;;2.52;1.20;;;;;;;20.62;47.59;100580.26;2325441;75;50363;-78
2024/04/18 03:11:31;;;;;;;2.33;1.45;;;;;;;20.65;47.59;100591.13;2299629;75;50130;-77
2024/04/18 03:14:33;;;;;;;2.02;1.32;;;;;;;20.64;47.61;100590.30;2333657;75;51546;-77
2024/04/18 03:17:35;;;;;;;7.15;1.27;;;;;;;20.63;47.63;100595.38;2343984;75;51474;-77
2024/04/18 03:20:38;;;;;;;5.97;1.20;;;;;;;20.63;47.64;100595.91;2298382;75;50984;-78
2024/04/18 03:23:40;;;;;;;4.40;1.20;;;;;;;20.62;47.58;100595.56;2337502;75;51579;-77
2024/04/18 03:26:44;;;;;;;3.70;1.20;;;;;;;20.63;47.59;100603.97;2308682;75;50296;-78
2024/04/18 03:29:46;;;;;;;3.45;1.15;;;;;;;20.63;47.52;100603.97;2315299;75;51444;-76
2024/04/18 03:32:49;;;;;;;17.25;1.55;;;;;;;20.61;47.61;100602.81;2341759;75;50341;-77
2024/04/18 03:35:51;;;;;;;3.75;1.42;;;;;;;20.61;47.61;100602.81;2275787;75;49479;-77
2024/04/18 03:38:53;;;;;;;2.22;1.20;;;;;;;20.61;47.66;100612.22;2324174;75;50799;-77
2024/04/18 03:41:55;;;;;;;1.92;0.98;;;;;;;20.61;47.59;100614.08;2338893;75;50254;-77
2024/04/18 03:44:59;;;;;;;2.75;1.10;;;;;;;20.61;47.59;100612.22;2300136;75;51748;-81
2024/04/18 03:48:01;;;;;;;5.40;1.40;;;;;;;20.60;47.57;100609.23;2320676;75;51555;-76
2024/04/18 03:51:04;;;;;;;4.03;1.25;;;;;;;20.61;47.58;100621.62;2339877;75;50254;-76
2024/04/18 03:54:06;;;;;;;3.98;1.22;;;;;;;20.60;47.54;100619.98;2276997;75;51297;-76
2024/04/18 03:57:08;;;;;;;2.92;1.20;;;;;;;20.60;47.54;100624.01;2330196;75;51496;-77
2024/04/18 04:00:11;;;;;;;2.75;1.00;;;;;;;20.60;47.63;100619.98;2240303;75;52455;-77
2024/04/18 04:03:13;;;;;;;4.20;1.20;;;;;;;20.59;47.62;100631.73;2324278;75;50477;-77
2024/04/18 04:06:15;;;;;;;2.08;0.90;;;;;;;20.59;47.58;100627.70;2336899;75;50784;-77
2024/04/18 04:09:17;;;;;;;3.02;1.00;;;;;;;20.60;47.62;100631.22;2290152;75;49502;-77
2024/04/18 04:12:19;;;;;;;3.02;1.20;;;;;;;20.59;47.60;100637.12;2306498;75;50704;-78
2024/04/18 04:15:22;;;;;;;2.17;1.27;;;;;;;20.58;47.51;100634.13;2333288;75;51511;-78
2024/04/18 04:18:26;;;;;;;4.10;1.20;;;;;;;20.59;47.58;100643.02;2306111;75;50609;-77
2024/04/18 04:21:28;;;;;;;2.42;1.17;;;;;;;20.58;47.50;100647.56;2340308;75;25610;-76
2024/04/18 04:24:30;;;;;;;2.70;1.10;;;;;;;20.58;47.55;100646.22;2281744;75;49575;-76
2024/04/18 04:27:32;;;;;;;3.02;1.10;;;;;;;20.57;47.59;100649.92;2331971;75;50384;-76
2024/04/18 04:30:34;;;;;;;3.35;1.30;;;;;;;20.57;47.58;100656.64;2323191;75;50749;-76
2024/04/18 04:33:36;;;;;;;3.87;1.35;;;;;;;20.57;47.54;100649.92;2284533;75;51022;-77
2024/04/18 04:36:39;;;;;;;3.02;1.20;;;;;;;20.57;47.41;100659.33;2311421;75;51573;-77
2024/04/18 04:39:41;;;;;;;4.05;1.32;;;;;;;20.56;47.47;100656.33;2333773;75;51560;-77
2024/04/18 04:42:43;;;;;;;2.62;1.30;;;;;;;20.56;47.52;100660.37;2329912;75;50314;-77
2024/04/18 04:45:45;;;;;;;3.62;1.40;;;;;;;20.56;47.41;100666.27;2326132;75;49617;-76
2024/04/18 04:48:47;;;;;;;2.02;1.02;;;;;;;20.58;47.50;100676.31;2295048;75;51167;-77
2024/04/18 04:51:50;;;;;;;3.27;1.30;;;;;;;20.57;47.52;100671.42;2306741;75;51522;-77
2024/04/18 04:54:52;;;;;;;4.12;1.55;;;;;;;20.56;47.36;100677.84;2329999;75;51339;-77
2024/04/18 04:57:55;;;;;;;4.67;1.62;;;;;;;20.56;47.33;100679.18;2290860;75;51956;-78
2024/04/18 05:00:57;;;;;;;5.62;1.22;;;;;;;20.56;47.45;100684.56;2342759;75;51466;-77
2024/04/18 05:03:59;;;;;;;6.90;1.65;;;;;;;20.57;47.37;100684.86;2349840;75;50330;-78
2024/04/18 05:07:01;;;;;;;8.65;1.80;;;;;;;20.57;48.81;100691.59;2335861;75;50027;-77
2024/04/18 05:10:03;;;;;;;8.10;1.60;;;;;;;20.57;48.76;100695.62;2329989;75;50729;-77
2024/04/18 05:13:06;;;;;;;16.32;2.65;;;;;;;20.56;48.65;100693.97;2244631;75;50955;-75
2024/04/18 05:16:08;;;;;;;18.15;2.90;;;;;;;20.60;50.06;100700.63;2330632;75;50393;-76
2024/04/18 05:19:10;;;;;;;14.78;2.50;;;;;;;20.60;51.20;100707.34;2324137;75;49949;-76
2024/04/18 05:22:12;;;;;;;14.73;2.42;;;;;;;20.62;51.30;100709.30;2298590;75;49629;-77
2024/04/18 05:25:15;;;;;;;8.18;1.92;;;;;;;20.61;50.77;100717.06;2343068;74;52108;-78
2024/04/18 05:28:21;;;;;;;12.23;2.52;;;;;;;20.62;51.28;100720.58;2280436;75;51448;-78
2024/04/18 05:31:23;;;;;;;14.35;4.30;;;;;;;20.63;51.04;100724.95;2310412;75;51461;-78
2024/04/18 05:34:25;;;;;;;30.25;4.03;;;;;;;20.65;51.77;100728.25;2340176;75;51484;-78
2024/04/18 05:37:27;;;;;;;24.37;3.70;;;;;;;20.65;51.61;100729.11;2304812;75;50983;-77
2024/04/18 05:40:30;;;;;;;17.20;4.40;;;;;;;20.67;51.74;100731.58;2338276;75;50086;-76
2024/04/18 05:43:32;;;;;;;14.70;3.95;;;;;;;20.69;52.35;100731.40;2329520;75;50427;-78
2024/04/18 05:46:36;;;;;;;20.17;3.33;;;;;;;20.70;52.66;100739.77;2285181;75;49787;-77
2024/04/18 05:49:38;;;;;;;18.35;4.25;;;;;;;20.72;52.47;100745.79;2336183;75;50686;-77
2024/04/18 05:52:40;;;;;;;17.52;4.08;;;;;;;20.73;52.40;100748.78;2328701;75;51419;-76
2024/04/18 05:55:42;;;;;;;27.93;4.50;;;;;;;20.72;52.48;100750.65;2335516;75;51600;-77
2024/04/18 05:58:45;;;;;;;23.02;3.98;;;;;;;20.73;52.54;100748.30;2327535;75;50335;-77
2024/04/18 06:01:47;;;;;;;28.42;3.72;;;;;;;20.74;52.38;100752.64;2300545;75;51031;-77
2024/04/18 06:04:49;;;;;;;13.13;3.10;;;;;;;20.72;52.28;100753.34;2320143;75;52069;-77
2024/04/18 06:07:52;;;;;;;18.23;3.55;;;;;;;20.71;52.23;100748.17;2325364;75;51517;-77
2024/04/18 06:10:54;;;;;;;22.17;3.72;;;;;;;20.72;52.17;100752.00;2280088;75;50925;-77
2024/04/18 06:13:57;;;;;;;18.92;3.80;;;;;;;20.73;52.06;100765.78;2340491;75;51355;-77
2024/04/18 06:16:59;;;;;;;17.27;3.60;;;;;;;20.73;51.88;100769.81;2347946;75;50090;-78
2024/04/18 06:20:01;;;;;;;17.48;4.33;;;;;;;20.73;51.83;100778.36;2330289;75;50041;-77
2024/04/18 06:23:03;;;;;;;20.23;3.62;;;;;;;20.73;51.76;100770.30;2304536;75;50620;-77
2024/04/18 06:26:06;;;;;;;18.45;4.35;;;;;;;20.73;51.79;100781.05;2319771;75;52355;-78
2024/04/18 06:29:08;;;;;;;18.85;4.08;;;;;;;20.72;51.81;100783.44;2310225;75;50654;-77
2024/04/18 06:32:11;;;;;;;18.87;4.42;;;;;;;20.73;51.80;100781.05;2306597;75;51538;-77
2024/04/18 06:35:13;;;;;;;22.87;3.90;;;;;;;20.76;51.69;100786.07;2289100;74;52524;-77
2024/04/18 06:38:15;;;;;;;23.55;4.47;;;;;;;20.74;51.63;100783.56;2340950;75;51536;-78
2024/04/18 06:41:17;;;;;;;20.72;4.35;;;;;;;20.74;51.63;100788.11;2349646;75;50620;-78
2024/04/18 06:44:19;;;;;;;24.18;4.60;;;;;;;20.76;51.59;100788.76;2327115;75;50230;-76
2024/04/18 06:47:22;;;;;;;17.15;4.12;;;;;;;20.77;51.60;100789.06;2345492;75;52272;-77
2024/04/18 06:50:24;;;;;;;21.50;4.97;;;;;;;20.78;51.60;100794.75;2300340;75;50039;-77
2024/04/18 06:53:26;;;;;;;21.77;5.53;;;;;;;20.77;51.63;100797.13;2325310;75;53601;-77
2024/04/18 06:56:28;;;;;;;24.12;5.08;;;;;;;20.76;51.63;100792.80;2329071;75;50358;-77
2024/04/18 06:59:30;;;;;;;25.02;6.05;;;;;;;20.78;51.58;100801.47;2288581;75;51404;-77
2024/04/18 07:02:33;;;;;;;23.40;5.75;;;;;;;20.78;51.64;100798.78;2336560;75;50641;-78
2024/04/18 07:05:35;;;;;;;24.27;5.05;;;;;;;20.78;51.56;100806.36;2319061;75;50342;-77
2024/04/18 07:08:37;;;;;;;16.02;5.55;;;;;;;20.78;51.56;100810.88;2323511;75;50517;-77
2024/04/18 07:11:39;;;;;;;16.77;5.47;;;;;;;20.78;51.51;100811.74;2338929;75;51489;-77
2024/04/18 07:14:41;;;;;;;22.45;4.90;;;;;;;20.79;51.48;100821.98;2328100;75;51088;-77
2024/04/18 07:17:44;;;;;;;21.00;5.78;;;;;;;20.80;51.47;100812.87;2341800;75;50281;-77
2024/04/18 07:20:46;;;;;;;23.15;6.05;;;;;;;20.80;51.49;100818.25;2280951;75;51416;-77
2024/04/18 07:23:48;;;;;;;23.00;5.72;;;;;;;20.80;51.52;100830.36;2298618;75;49547;-77
2024/04/18 07:26:50;;;;;;;24.43;5.97;;;;;;;20.80;51.46;100827.67;2334025;74;50369;-78
2024/04/18 07:29:53;;;;;;;22.07;6.03;;;;;;;20.80;51.56;100829.84;2336282;75;50747;-77
2024/04/18 07:32:55;;;;;;;15.70;5.62;;;;;;;20.82;51.50;100830.48;2338193;75;50426;-78
2024/04/18 07:36:02;;;;;;;21.07;6.65;;;;;;;20.85;51.47;100832.78;2346530;73;50638;-77
2024/04/18 07:39:01;;;;;;;18.20;6.00;;;;;;;20.86;51.47;100842.53;2327307;75;22479;-77
2024/04/18 07:42:04;;;;;;;19.27;5.47;;;;;;;20.83;51.53;100832.66;2308827;75;50717;-76
2024/04/18 07:45:06;;;;;;;25.35;6.47;;;;;;;20.83;51.52;100833.51;2320463;75;51511;-77
2024/04/18 07:48:08;;;;;;;19.17;6.30;;;;;;;20.85;51.70;100838.67;2309386;75;50076;-77
2024/04/18 07:51:11;;;;;;;19.25;5.92;;;;;;;20.86;51.61;100839.84;2325749;75;50435;-76
2024/04/18 07:54:13;;;;;;;16.75;5.78;;;;;;;20.89;51.46;100844.00;2325638;75;50731;-76
2024/04/18 07:57:15;;;;;;;14.93;5.15;;;;;;;20.90;51.43;100844.83;2334411;75;50243;-77
2024/04/18 08:00:17;;;;;;;16.95;5.35;;;;;;;20.89;51.41;100842.66;2339391;75;50564;-77
2024/04/18 08:03:20;;;;;;;17.57;4.72;;;;;;;20.91;51.26;100843.30;2279277;75;50088;-78
2024/04/18 08:06:22;;;;;;;14.53;5.55;;;;;;;20.94;51.15;100844.77;2328957;74;50479;-77
2024/04/18 08:09:24;;;;;;;13.90;4.95;;;;;;;20.92;51.09;100847.64;2330445;75;50732;-77
2024/04/18 08:12:26;;;;;;;17.55;5.05;;;;;;;20.92;51.04;100848.98;2302845;75;52675;-76
2024/04/18 08:15:28;;;;;;;12.80;3.98;;;;;;;20.92;50.96;100851.67;2328299;75;51549;-77
2024/04/18 08:18:31;;;;;;;11.22;4.60;;;;;;;20.92;50.94;100853.02;2327863;75;52327;-76
2024/04/18 08:21:33;;;;;;;12.78;4.35;;;;;;;20.91;50.92;100851.38;2331579;75;50373;-76
2024/04/18 08:24:35;;;;;;;10.65;4.00;;;;;;;20.95;50.79;100858.53;2340341;75;50723;-77
2024/04/18 08:27:37;;;;;;;11.75;4.55;;;;;;;20.95;50.72;100852.62;2337546;75;50309;-77
2024/04/18 08:30:39;;;;;;;16.30;4.62;;;;;;;20.97;50.59;100854.62;2297538;75;50042;-77
2024/04/18 08:33:42;;;;;;;13.53;4.40;;;;;;;20.96;50.59;100858.34;2325513;75;51513;-77
2024/04/18 08:36:44;;;;;;;14.00;4.75;;;;;;;20.97;50.49;100859.17;2311885;75;50760;-77
2024/04/18 08:39:46;;;;;;;11.73;4.12;;;;;;;20.98;50.44;100859.48;2332678;75;50284;-77
2024/04/18 08:42:49;;;;;;;8.40;3.50;;;;;;;20.98;50.33;100864.86;2337407;75;50720;-77
2024/04/18 08:45:51;;;;;;;13.08;4.50;;;;;;;20.99;50.24;100855.75;2293550;75;52912;-77
2024/04/18 08:48:53;;;;;;;14.18;3.77;;;;;;;20.97;50.23;100856.48;2312117;75;51507;-77
2024/04/18 08:51:55;;;;;;;12.23;3.52;;;;;;;20.98;50.14;100854.09;2336643;75;50530;-77
2024/04/18 08:54:57;;;;;;;10.10;3.90;;;;;;;20.99;49.97;100856.61;2286927;75;49570;-77
2024/04/18 08:58:05;;;;;;;9.68;3.85;;;;;;;20.98;49.98;100856.27;2336152;75;50339;-77
2024/04/18 09:01:08;;;;;;;9.25;3.40;;;;;;;21.01;49.91;100842.94;2322802;75;51516;-76
2024/04/18 09:04:10;;;;;;;13.08;3.92;;;;;;;21.03;49.75;100846.28;2320519;75;50764;-77
2024/04/18 09:07:12;;;;;;;8.45;3.35;;;;;;;21.03;49.55;100838.20;2307322;75;50758;-77
2024/04/18 09:10:17;;;;;;;11.75;3.08;;;;;;;21.04;49.44;100846.09;2303578;75;50987;-78
2024/04/18 09:13:19;;;;;;;8.83;3.10;;;;;;;21.06;49.19;100842.67;2324071;75;23074;-77
2024/04/18 09:16:24;;;;;;;8.75;3.00;;;;;;;21.07;49.02;100844.36;2323893;75;51583;-77
2024/04/18 09:19:26;;;;;;;7.90;3.07;;;;;;;21.06;48.88;100845.36;2298903;75;51037;-78
2024/04/18 09:22:28;;;;;;;8.18;3.15;;;;;;;21.05;48.87;100843.71;2309406;75;50477;-77
2024/04/18 09:25:31;;;;;;;9.08;2.87;;;;;;;21.06;48.87;100848.58;2312150;75;51546;-77
2024/04/18 09:28:41;;;;;;;10.53;2.80;;;;;;;21.05;48.90;100857.69;2324204;75;49850;-78
2024/04/18 09:31:41;;;;;;;6.97;2.65;;;;;;;21.02;49.02;100856.22;2340454;75;23089;-77
2024/04/18 09:34:48;;;;;;;9.00;2.83;;;;;;;21.00;48.99;100855.57;2308273;75;49574;-77
2024/04/18 09:37:47;;;;;;;9.08;3.33;;;;;;;20.99;48.94;100845.84;2310910;75;22509;-77
2024/04/18 09:40:55;;;;;;;6.28;2.62;;;;;;;20.97;48.95;100850.58;2335051;75;52491;-77
2024/04/18 09:44:15;;;;;;;7.92;3.10;;;;;;;20.97;48.93;100855.97;2290720;75;51214;-77
2024/04/18 09:47:16;;;;;;;6.37;2.45;;;;;;;20.97;48.89;100853.79;2328824;75;22565;-77
2024/04/18 09:50:18;;;;;;;6.53;2.77;;;;;;;20.96;48.89;100851.63;2336540;75;50429;-78
2024/04/18 09:53:21;;;;;;;7.53;3.00;;;;;;;20.96;48.83;100851.63;2344241;75;51424;-77
2024/04/18 09:56:25;;;;;;;6.45;2.83;;;;;;;20.95;48.85;100862.05;2335316;73;50282;-78
2024/04/18 09:59:28;;;;;;;8.78;2.77;;;;;;;20.95;48.79;100848.59;2293659;75;50198;-77
2024/04/18 10:02:31;;;;;;;7.25;2.65;;;;;;;20.95;48.79;100843.21;2328673;75;52315;-77
2024/04/18 10:05:34;;;;;;;7.72;2.87;;;;;;;20.93;48.87;100852.50;2339640;75;50757;-77
2024/04/18 10:08:39;;;;;;;6.17;2.08;;;;;;;20.93;48.83;100849.81;2296454;75;50100;-78
2024/04/18 10:11:41;;;;;;;7.45;3.00;;;;;;;20.93;48.86;100854.67;2336935;75;50429;-77
2024/04/18 10:14:43;;;;;;;6.95;2.80;;;;;;;20.93;48.88;100860.05;2341250;75;50240;-77
2024/04/18 10:17:46;;;;;;;8.90;2.58;;;;;;;20.93;48.79;100851.98;2327460;74;50706;-77
2024/04/18 10:20:48;;;;;;;5.47;2.65;;;;;;;20.91;48.73;100851.86;2332430;75;50322;-77
2024/04/18 10:23:51;;;;;;;7.10;2.45;;;;;;;20.92;48.71;100854.89;2300265;75;50072;-77
2024/04/18 10:27:02;;;;;;;8.15;2.72;;;;;;;20.91;48.70;100859.44;2317604;75;51695;-77
2024/04/18 10:30:04;;;;;;;5.95;2.45;;;;;;;20.90;48.68;100866.34;2312669;75;52197;-77
2024/04/18 10:33:08;;;;;;;5.25;2.20;;;;;;;20.90;48.57;100862.31;2294660;75;50841;-77
2024/04/18 10:36:15;;;;;;;4.37;2.33;;;;;;;20.89;48.56;100861.48;2338307;75;51526;-77
2024/04/18 10:39:34;;;;;;;8.03;2.10;;;;;;;20.90;48.53;100863.14;2331079;75;51606;-77
2024/04/18 10:42:38;;;;;;;4.72;2.33;;;;;;;20.91;48.48;100855.89;2337500;75;50437;-76
2024/04/18 10:45:41;;;;;;;7.87;2.27;;;;;;;20.88;48.54;100854.42;2337022;75;51658;-76
2024/04/18 10:48:43;;;;;;;5.17;2.08;;;;;;;20.90;48.48;100855.59;2295519;75;52462;-77
2024/04/18 10:51:45;;;;;;;6.97;2.17;;;;;;;20.89;48.50;100857.45;2301485;75;50393;-76
2024/04/18 10:54:48;;;;;;;7.55;2.45;;;;;;;20.88;48.47;100867.37;2335100;75;50429;-76
2024/04/18 10:57:50;;;;;;;5.10;2.10;;;;;;;20.88;48.41;100858.45;2293015;75;51124;-77
2024/04/18 11:01:00;;;;;;;6.00;2.00;;;;;;;20.89;48.38;100858.80;2330134;75;50183;-77
2024/04/18 11:04:02;;;;;;;5.95;2.22;;;;;;;20.89;48.41;100860.14;2326509;75;50426;-77
2024/04/18 11:07:04;;;;;;;5.60;2.05;;;;;;;20.88;48.37;100861.14;2331767;75;50755;-77
2024/04/18 11:10:07;;;;;;;6.80;2.10;;;;;;;20.88;48.44;100861.14;2300945;75;50383;-77
2024/04/18 11:13:10;;;;;;;3.65;1.72;;;;;;;20.86;48.45;100862.70;2296002;75;51013;-77
2024/04/18 11:16:13;;;;;;;5.33;2.00;;;;;;;20.87;48.40;100858.15;2329106;75;51664;-77
2024/04/18 11:19:15;;;;;;;5.35;1.87;;;;;;;20.87;48.38;100864.35;2317344;75;50324;-77
2024/04/18 11:22:17;;;;;;;5.20;1.82;;;;;;;20.85;48.34;100856.16;2313674;75;50943;-77
2024/04/18 11:25:20;;;;;;;4.65;2.10;;;;;;;20.87;48.24;100868.91;2329082;75;50752;-77
2024/04/18 11:28:24;;;;;;;3.58;1.90;;;;;;;20.85;48.28;100858.84;2328600;75;50275;-77
2024/04/18 11:31:26;;;;;;;4.50;1.98;;;;;;;20.87;48.19;100863.53;2319618;75;50648;-77
2024/04/18 11:34:28;;;;;;;4.87;1.95;;;;;;;20.86;48.12;100861.88;2313211;75;51528;-77
2024/04/18 11:37:38;;;;;;;5.30;2.30;;;;;;;20.88;48.04;100859.80;2308038;75;51928;-77
2024/04/18 11:40:40;;;;;;;3.50;1.75;;;;;;;20.88;48.03;100862.49;2291267;76;50210;-77
2024/04/18 11:43:42;;;;;;;3.02;1.45;;;;;;;20.85;48.15;100864.23;2318204;75;51538;-77
2024/04/18 11:46:47;;;;;;;4.47;1.87;;;;;;;20.87;48.09;100873.77;2311992;75;49555;-77
2024/04/18 11:49:48;;;;;;;4.97;2.08;;;;;;;20.85;48.18;100863.70;2326819;75;23530;-77
2024/04/18 11:52:51;;;;;;;3.45;1.75;;;;;;;20.86;48.10;100864.05;2334987;75;51546;-77
2024/04/18 11:55:53;;;;;;;4.97;1.98;;;;;;;20.83;48.14;100858.20;2290045;75;51060;-77
2024/04/18 11:58:58;;;;;;;3.42;1.75;;;;;;;20.86;48.09;100866.73;2334134;75;51419;-77
2024/04/18 12:01:59;;;;;;;3.60;1.75;;;;;;;20.87;48.02;100858.15;2333139;75;22499;-76
2024/04/18 12:05:01;;;;;;;4.83;1.77;;;;;;;20.89;48.09;100861.48;2313483;75;50698;-76
2024/04/18 12:08:05;;;;;;;4.45;1.85;;;;;;;20.90;47.97;100853.72;2341917;75;50242;-79
2024/04/18 12:11:07;;;;;;;4.95;2.05;;;;;;;20.91;47.88;100852.72;2297719;75;49624;-77
2024/04/18 12:14:09;;;;;;;5.50;1.80;;;;;;;20.92;47.74;100848.16;2335363;75;50463;-78
2024/04/18 12:17:13;;;;;;;5.22;1.52;;;;;;;20.93;47.70;100845.26;2332725;75;50751;-78
2024/04/18 12:20:17;;;;;;;3.60;1.62;;;;;;;20.94;47.53;100856.88;2322298;75;50768;-79
2024/04/18 12:24:13;;;;;;;2.15;1.30;;;;;;;20.94;47.59;100832.14;2290496;75;50447;-78
2024/04/18 12:30:46;;;;;;;6.05;1.80;;;;;;;20.95;47.34;100828.42;2323181;75;23379;-79
2024/04/18 12:34:07;;;;;;;4.67;1.60;;;;;;;20.96;47.25;100827.90;2270325;77;22520;-79
2024/04/18 12:37:31;;;;;;;4.42;1.92;;;;;;;20.96;47.04;100818.00;2271790;77;51635;-78
2024/04/18 12:40:55;;;;;;;3.67;1.47;;;;;;;20.98;46.90;100826.68;2242111;78;22378;-79
2024/04/18 12:44:03;;;;;;;4.35;1.75;;;;;;;20.98;46.81;100823.98;2234519;79;22620;-79
2024/04/18 12:47:15;;;;;;;2.30;1.37;;;;;;;20.99;46.67;100816.26;2227224;79;22238;-78
2024/04/18 12:50:29;;;;;;;3.60;1.40;;;;;;;21.00;46.44;100819.25;2229418;79;50780;-78
2024/04/18 12:53:37;;;;;;;2.45;1.42;;;;;;;21.00;46.45;100821.94;2239863;79;23433;-77
2024/04/18 12:56:35;;;;;;;2.00;1.30;;;;;;;21.03;46.37;100813.48;2237858;77;22466;-78
2024/04/18 12:59:39;;;;;;;3.52;1.37;;;;;;;21.05;46.31;100806.05;2232039;79;50638;-79
2024/04/18 13:02:41;;;;;;;3.67;1.30;;;;;;;21.04;46.28;100804.39;2226082;77;51521;-78
2024/04/18 13:05:43;;;;;;;2.37;1.32;;;;;;;21.04;46.13;100805.74;2258434;77;51786;-78
2024/04/18 13:08:45;;;;;;;3.30;1.52;;;;;;;21.03;46.08;100805.92;2249887;77;51726;-79
2024/04/18 13:11:47;;;;;;;3.87;1.40;;;;;;;21.01;46.05;100805.28;2321140;75;50215;-78
2024/04/18 13:14:50;;;;;;;1.87;1.20;;;;;;;21.01;46.05;100810.66;2313745;75;49357;-78
2024/04/18 13:17:52;;;;;;;4.87;1.45;;;;;;;21.00;46.07;100809.84;2303923;75;50074;-78
2024/04/18 13:20:56;;;;;;;1.87;1.27;;;;;;;20.98;46.16;100807.84;2341621;75;50963;-78
2024/04/18 13:23:59;;;;;;;2.58;1.32;;;;;;;21.02;46.02;100807.79;2321971;75;50667;-79
2024/04/18 13:27:01;;;;;;;1.80;1.15;;;;;;;21.02;45.93;100795.69;2299208;75;51608;-78
2024/04/18 13:30:06;;;;;;;2.15;1.07;;;;;;;21.00;45.79;100803.11;2329498;75;50753;-78
2024/04/18 13:33:07;;;;;;;1.77;1.20;;;;;;;21.02;45.63;100804.27;2335519;75;22491;-78
2024/04/18 13:36:15;;;;;;;3.80;1.22;;;;;;;21.03;45.57;100798.68;2344995;75;51465;-79
2024/04/18 13:39:25;;;;;;;2.60;1.40;;;;;;;21.02;45.67;100799.72;2328575;75;51595;-80
2024/04/18 13:42:39;;;;;;;1.27;0.98;;;;;;;21.02;45.51;100801.58;2333419;75;22983;-79
2024/04/18 13:45:49;;;;;;;1.77;1.12;;;;;;;21.03;45.40;100793.81;2284975;75;51735;-78
2024/04/18 13:48:56;;;;;;;1.62;1.07;;;;;;;21.02;45.34;100788.95;2332997;75;52063;-80
2024/04/18 13:52:01;;;;;;;1.98;1.10;;;;;;;21.04;45.36;100788.25;2309606;75;51119;-79
2024/04/18 13:55:05;;;;;;;1.90;1.25;;;;;;;21.02;45.32;100791.65;2328304;75;50130;-80
2024/04/18 13:58:08;;;;;;;1.82;1.07;;;;;;;21.04;45.29;100789.60;2315206;75;50719;-80
2024/04/18 14:01:10;;;;;;;2.52;1.05;;;;;;;21.05;45.37;100780.48;2336002;75;50275;-78
2024/04/18 14:04:15;;;;;;;2.98;0.90;;;;;;;21.03;45.30;100784.40;2332279;75;51806;-79
2024/04/18 14:07:17;;;;;;;1.02;0.85;;;;;;;21.03;45.20;100781.19;2292345;75;51702;-78
2024/04/18 14:10:20;;;;;;;1.82;1.10;;;;;;;21.03;45.00;100779.02;2333839;75;50705;-77
2024/04/18 14:13:25;;;;;;;1.87;0.90;;;;;;;21.02;44.92;100782.23;2303371;75;50671;-78